Etusivu
METAR-TAF:

METAR-TAF

Lentoasemat :

Blue River, Brittiläinen Kolumbia, Kanada

Leveyspiiri: 52-08N, Pituuspiiri: 119-18W, korkeus merenpinnasta: 679 m

Tämänhetkinen sää

Tämä raportti tehtiin 15 minuuttia sitten, kello 14.00 UTC
tyyntä
Lämpötila 0°C
Kosteus 100%
Ilmanpaine 1002 hPa
Näkyvyys: 16.1 km
Muutamia pilviä 400 ft:n korkeudessa
Hajonneita pilviä 6300 ft:n korkeudessa
Pilvistä 9000 ft:n korkeudessa
sumua näköpiirissä

METAR: CYCP 301400Z 00000KT 10SM VCFG FEW004 BKN063 OVC090 M00/M00 A2959 RMK ST3SC3AS2 VIS VLY E 2 SLP046

Aika: 07:15 (14:15 UTC)


TAF: puuttuu

Säähavainnot ja -ennusteet yli 4000 lentoasemalta (METAR- ja TAF-raportit).

Käytössä olevat sääasemat on merkitty karttaan keltaisilla ja punaisilla pisteillä.

Aseta hiiri pisteen päälle nähdäksesi sääaseman nimen.

Klikkaa sitten nähdäksesi säähavainnot ja -ennusteet.

Kartan vaihtaminen: klikkaa mustalla rastilla varustettuja vihreitä pisteitä, niin voit zoomata sisään; viivalla varustettua vihreää pistettä, niin voit zoomata ulos tai vihreitä nuolia, niin pääset viereisille kartoille.


METAR-TAF: